sensor_id;sensor_type;location;lat;lon;timestamp;pressure;altitude;pressure_sealevel;temperature;humidity
64544;BME280;50936;51.660;5.616;2023-05-01T00:00:25;101399.25;;;11.93;93.71
64544;BME280;50936;51.660;5.616;2023-05-01T00:02:52;101400.25;;;11.92;93.80
64544;BME280;50936;51.660;5.616;2023-05-01T00:05:20;101395.78;;;11.91;93.88
64544;BME280;50936;51.660;5.616;2023-05-01T00:07:47;101382.25;;;11.91;94.14
64544;BME280;50936;51.660;5.616;2023-05-01T00:10:14;101387.66;;;11.91;94.05
64544;BME280;50936;51.660;5.616;2023-05-01T00:12:41;101381.28;;;11.92;93.80
64544;BME280;50936;51.660;5.616;2023-05-01T00:15:08;101381.28;;;11.92;93.34
64544;BME280;50936;51.660;5.616;2023-05-01T00:17:35;101378.59;;;11.92;93.53
64544;BME280;50936;51.660;5.616;2023-05-01T00:20:02;101365.22;;;11.89;93.15
64544;BME280;50936;51.660;5.616;2023-05-01T00:22:30;101363.47;;;11.88;93.59
64544;BME280;50936;51.660;5.616;2023-05-01T00:24:57;101361.75;;;11.87;93.26
64544;BME280;50936;51.660;5.616;2023-05-01T00:27:24;101363.69;;;11.85;93.48
64544;BME280;50936;51.660;5.616;2023-05-01T00:29:51;101355.75;;;11.82;94.04
64544;BME280;50936;51.660;5.616;2023-05-01T00:32:18;101353.25;;;11.79;93.72
64544;BME280;50936;51.660;5.616;2023-05-01T00:34:45;101350.66;;;11.78;94.09
64544;BME280;50936;51.660;5.616;2023-05-01T00:37:14;101348.25;;;11.73;93.92
64544;BME280;50936;51.660;5.616;2023-05-01T00:39:40;101344.69;;;11.72;94.03
64544;BME280;50936;51.660;5.616;2023-05-01T00:42:07;101348.25;;;11.73;94.10
64544;BME280;50936;51.660;5.616;2023-05-01T00:44:34;101348.25;;;11.73;93.63
64544;BME280;50936;51.660;5.616;2023-05-01T00:47:01;101342.84;;;11.73;93.75
64544;BME280;50936;51.660;5.616;2023-05-01T00:49:30;101336.69;;;11.71;93.83
64544;BME280;50936;51.660;5.616;2023-05-01T00:51:57;101339.56;;;11.68;93.87
64544;BME280;50936;51.660;5.616;2023-05-01T00:54:25;101330.50;;;11.69;93.95
64544;BME280;50936;51.660;5.616;2023-05-01T00:56:54;101334.16;;;11.68;93.89
64544;BME280;50936;51.660;5.616;2023-05-01T00:59:21;101328.75;;;11.68;93.95
64544;BME280;50936;51.660;5.616;2023-05-01T01:01:49;101325.09;;;11.69;93.90
64544;BME280;50936;51.660;5.616;2023-05-01T01:04:16;101324.88;;;11.72;93.93
64544;BME280;50936;51.660;5.616;2023-05-01T01:09:54;101317.94;;;11.68;93.77
64544;BME280;50936;51.660;5.616;2023-05-01T01:15:28;101308.84;;;11.69;93.49
64544;BME280;50936;51.660;5.616;2023-05-01T01:20:54;101300.72;;;11.69;93.46
64544;BME280;50936;51.660;5.616;2023-05-01T01:36:39;101286.94;;;11.59;93.77
64544;BME280;50936;51.660;5.616;2023-05-01T01:41:53;101285.41;;;11.55;93.34
64544;BME280;50936;51.660;5.616;2023-05-01T01:44:53;101280.75;;;11.57;93.54
64544;BME280;50936;51.660;5.616;2023-05-01T01:47:25;101271.97;;;11.53;93.62
64544;BME280;50936;51.660;5.616;2023-05-01T01:50:02;101272.22;;;11.50;93.63
64544;BME280;50936;51.660;5.616;2023-05-01T01:52:33;101265.91;;;11.50;93.66
64544;BME280;50936;51.660;5.616;2023-05-01T01:55:08;101264.94;;;11.51;93.62
64544;BME280;50936;51.660;5.616;2023-05-01T01:57:40;101262.34;;;11.49;93.57
64544;BME280;50936;51.660;5.616;2023-05-01T02:00:12;101259.84;;;11.46;93.60
64544;BME280;50936;51.660;5.616;2023-05-01T02:02:46;101251.19;;;11.41;93.74
64544;BME280;50936;51.660;5.616;2023-05-01T02:05:16;101250.38;;;11.39;93.72
64544;BME280;50936;51.660;5.616;2023-05-01T02:07:48;101245.22;;;11.36;94.38
64544;BME280;50936;51.660;5.616;2023-05-01T02:10:17;101251.56;;;11.35;94.45
64544;BME280;50936;51.660;5.616;2023-05-01T02:12:48;101246.38;;;11.32;94.38
64544;BME280;50936;51.660;5.616;2023-05-01T02:15:18;101236.44;;;11.32;94.47
64544;BME280;50936;51.660;5.616;2023-05-01T02:17:47;101240.00;;;11.33;94.81
64544;BME280;50936;51.660;5.616;2023-05-01T02:20:17;101235.56;;;11.32;94.52
64544;BME280;50936;51.660;5.616;2023-05-01T02:22:47;101235.66;;;11.30;94.42
64544;BME280;50936;51.660;5.616;2023-05-01T02:25:18;101235.56;;;11.32;94.71
64544;BME280;50936;51.660;5.616;2023-05-01T02:27:51;101230.16;;;11.32;94.43
64544;BME280;50936;51.660;5.616;2023-05-01T02:30:22;101228.59;;;11.28;94.63
64544;BME280;50936;51.660;5.616;2023-05-01T02:32:49;101223.19;;;11.28;94.80
64544;BME280;50936;51.660;5.616;2023-05-01T02:35:16;101228.59;;;11.28;94.60
64544;BME280;50936;51.660;5.616;2023-05-01T02:37:44;101226.88;;;11.27;94.38
64544;BME280;50936;51.660;5.616;2023-05-01T02:40:12;101219.72;;;11.26;94.76
64544;BME280;50936;51.660;5.616;2023-05-01T02:42:44;101219.72;;;11.26;95.21
64544;BME280;50936;51.660;5.616;2023-05-01T02:45:19;101214.53;;;11.23;95.35
64544;BME280;50936;51.660;5.616;2023-05-01T02:47:50;101217.44;;;11.20;95.06
64544;BME280;50936;51.660;5.616;2023-05-01T02:50:21;101214.75;;;11.20;94.65
64544;BME280;50936;51.660;5.616;2023-05-01T02:52:49;101202.19;;;11.18;94.98
64544;BME280;50936;51.660;5.616;2023-05-01T02:55:45;101209.53;;;11.16;94.89
64544;BME280;50936;51.660;5.616;2023-05-01T02:58:19;101200.66;;;11.14;95.50
64544;BME280;50936;51.660;5.616;2023-05-01T03:00:48;101187.44;;;11.10;95.64
64544;BME280;50936;51.660;5.616;2023-05-01T03:03:16;101197.38;;;11.09;95.90
64544;BME280;50936;51.660;5.616;2023-05-01T03:05:44;101191.22;;;11.07;96.13
64544;BME280;50936;51.660;5.616;2023-05-01T03:08:12;101196.72;;;11.06;96.22
64544;BME280;50936;51.660;5.616;2023-05-01T03:10:39;101189.59;;;11.05;96.31
64544;BME280;50936;51.660;5.616;2023-05-01T03:13:10;101190.44;;;11.05;96.54
64544;BME280;50936;51.660;5.616;2023-05-01T03:15:38;101181.59;;;11.03;96.87
64544;BME280;50936;51.660;5.616;2023-05-01T03:18:05;101174.66;;;10.99;97.13
64544;BME280;50936;51.660;5.616;2023-05-01T03:20:32;101176.56;;;10.97;97.25
64544;BME280;50936;51.660;5.616;2023-05-01T03:23:00;101181.09;;;10.96;97.36
64544;BME280;50936;51.660;5.616;2023-05-01T03:25:28;101169.44;;;10.96;97.10
64544;BME280;50936;51.660;5.616;2023-05-01T03:27:54;101167.50;;;10.98;97.40
64544;BME280;50936;51.660;5.616;2023-05-01T03:30:22;101158.72;;;10.94;97.39
64544;BME280;50936;51.660;5.616;2023-05-01T03:32:49;101161.63;;;10.91;97.48
64544;BME280;50936;51.660;5.616;2023-05-01T03:35:23;101162.50;;;10.92;97.68
64544;BME280;50936;51.660;5.616;2023-05-01T03:37:50;101162.50;;;10.92;97.59
64544;BME280;50936;51.660;5.616;2023-05-01T03:40:35;101161.63;;;10.91;97.95
64544;BME280;50936;51.660;5.616;2023-05-01T03:43:21;101157.28;;;10.89;98.25
64544;BME280;50936;51.660;5.616;2023-05-01T03:45:51;101148.44;;;10.87;97.98
64544;BME280;50936;51.660;5.616;2023-05-01T03:48:19;101154.88;;;10.84;98.60
64544;BME280;50936;51.660;5.616;2023-05-01T03:50:46;101143.41;;;10.81;98.53
64544;BME280;50936;51.660;5.616;2023-05-01T03:53:13;101146.34;;;10.77;99.07
64544;BME280;50936;51.660;5.616;2023-05-01T03:55:42;101149.13;;;10.76;99.44
64544;BME280;50936;51.660;5.616;2023-05-01T03:58:10;101137.56;;;10.74;99.25
64544;BME280;50936;51.660;5.616;2023-05-01T04:00:38;101135.91;;;10.71;99.22
64544;BME280;50936;51.660;5.616;2023-05-01T04:03:05;101135.16;;;10.69;99.24
64544;BME280;50936;51.660;5.616;2023-05-01T04:05:35;101135.38;;;10.66;99.31
64544;BME280;50936;51.660;5.616;2023-05-01T04:08:02;101131.91;;;10.64;99.54
64544;BME280;50936;51.660;5.616;2023-05-01T04:10:30;101137.50;;;10.61;99.58
64544;BME280;50936;51.660;5.616;2023-05-01T04:13:03;101135.75;;;10.60;99.56
64544;BME280;50936;51.660;5.616;2023-05-01T04:15:31;101140.38;;;10.58;99.57
64544;BME280;50936;51.660;5.616;2023-05-01T04:17:58;101139.44;;;10.59;99.88
64544;BME280;50936;51.660;5.616;2023-05-01T04:20:25;101132.28;;;10.58;100.00
64544;BME280;50936;51.660;5.616;2023-05-01T04:22:52;101135.97;;;10.57;100.00
64544;BME280;50936;51.660;5.616;2023-05-01T04:25:20;101128.81;;;10.56;100.00
64544;BME280;50936;51.660;5.616;2023-05-01T04:27:50;101129.78;;;10.55;99.91
64544;BME280;50936;51.660;5.616;2023-05-01T04:30:17;101131.41;;;10.57;100.00
64544;BME280;50936;51.660;5.616;2023-05-01T04:32:44;101126.88;;;10.58;100.00
64544;BME280;50936;51.660;5.616;2023-05-01T04:35:11;101123.22;;;10.59;100.00
64544;BME280;50936;51.660;5.616;2023-05-01T04:37:41;101119.53;;;10.60;100.00
64544;BME280;50936;51.660;5.616;2023-05-01T04:40:09;101126.69;;;10.61;100.00
64544;BME280;50936;51.660;5.616;2023-05-01T04:42:38;101122.16;;;10.62;100.00
64544;BME280;50936;51.660;5.616;2023-05-01T04:45:08;101122.16;;;10.62;100.00
64544;BME280;50936;51.660;5.616;2023-05-01T04:47:36;101119.34;;;10.63;100.00
64544;BME280;50936;51.660;5.616;2023-05-01T04:50:04;101121.09;;;10.64;100.00
64544;BME280;50936;51.660;5.616;2023-05-01T04:52:32;101122.91;;;10.64;100.00
64544;BME280;50936;51.660;5.616;2023-05-01T04:55:01;101123.78;;;10.64;100.00
64544;BME280;50936;51.660;5.616;2023-05-01T04:57:32;101126.50;;;10.64;100.00
64544;BME280;50936;51.660;5.616;2023-05-01T05:00:03;101120.31;;;10.62;100.00
64544;BME280;50936;51.660;5.616;2023-05-01T05:02:33;101122.16;;;10.62;100.00
64544;BME280;50936;51.660;5.616;2023-05-01T05:05:00;101126.69;;;10.61;100.00
64544;BME280;50936;51.660;5.616;2023-05-01T05:07:30;101133.81;;;10.62;100.00
64544;BME280;50936;51.660;5.616;2023-05-01T05:10:16;101140.53;;;10.69;100.00
64544;BME280;50936;51.660;5.616;2023-05-01T05:12:50;101146.91;;;10.83;100.00
64544;BME280;50936;51.660;5.616;2023-05-01T05:15:17;101142.03;;;10.88;99.44
64544;BME280;50936;51.660;5.616;2023-05-01T05:17:44;101144.75;;;10.88;99.50
64544;BME280;50936;51.660;5.616;2023-05-01T05:20:11;101143.22;;;10.84;99.43
64544;BME280;50936;51.660;5.616;2023-05-01T05:22:38;101144.97;;;10.85;99.17
64544;BME280;50936;51.660;5.616;2023-05-01T05:25:23;101150.16;;;10.88;99.42
64544;BME280;50936;51.660;5.616;2023-05-01T05:27:50;101143.88;;;10.87;99.39
64544;BME280;50936;51.660;5.616;2023-05-01T05:30:18;101139.47;;;10.86;99.44
64544;BME280;50936;51.660;5.616;2023-05-01T05:32:45;101143.03;;;10.87;99.58
64544;BME280;50936;51.660;5.616;2023-05-01T05:35:13;101138.56;;;10.86;99.68
64544;BME280;50936;51.660;5.616;2023-05-01T05:37:40;101137.63;;;10.87;100.00
64544;BME280;50936;51.660;5.616;2023-05-01T05:40:10;101135.88;;;10.86;99.87
64544;BME280;50936;51.660;5.616;2023-05-01T05:42:46;101133.94;;;10.88;99.89
64544;BME280;50936;51.660;5.616;2023-05-01T05:45:13;101136.25;;;10.94;100.00
64544;BME280;50936;51.660;5.616;2023-05-01T05:47:40;101131.59;;;10.96;100.00
64544;BME280;50936;51.660;5.616;2023-05-01T05:50:09;101121.66;;;10.96;100.00
64544;BME280;50936;51.660;5.616;2023-05-01T05:52:37;101123.41;;;10.97;100.00
64544;BME280;50936;51.660;5.616;2023-05-01T05:55:05;101123.84;;;11.04;100.00
64544;BME280;50936;51.660;5.616;2023-05-01T05:57:32;101127.09;;;11.09;99.87
64544;BME280;50936;51.660;5.616;2023-05-01T06:00:05;101126.91;;;11.12;99.46
64544;BME280;50936;51.660;5.616;2023-05-01T06:02:37;101118.69;;;11.14;98.91
64544;BME280;50936;51.660;5.616;2023-05-01T06:05:06;101117.63;;;11.16;99.14
64544;BME280;50936;51.660;5.616;2023-05-01T06:07:33;101119.34;;;11.17;98.82
64544;BME280;50936;51.660;5.616;2023-05-01T06:10:01;101117.41;;;11.20;99.16
64544;BME280;50936;51.660;5.616;2023-05-01T06:12:31;101113.53;;;11.24;99.03
64544;BME280;50936;51.660;5.616;2023-05-01T06:14:59;101117.75;;;11.28;99.16
64544;BME280;50936;51.660;5.616;2023-05-01T06:17:27;101115.81;;;11.30;99.27
64544;BME280;50936;51.660;5.616;2023-05-01T06:19:55;101118.31;;;11.33;98.80
64544;BME280;50936;51.660;5.616;2023-05-01T06:22:22;101113.56;;;11.36;98.80
64544;BME280;50936;51.660;5.616;2023-05-01T06:25:05;101109.00;;;11.37;99.13
64544;BME280;50936;51.660;5.616;2023-05-01T06:27:33;101116.91;;;11.40;99.04
64544;BME280;50936;51.660;5.616;2023-05-01T06:30:00;101112.81;;;11.47;99.21
64544;BME280;50936;51.660;5.616;2023-05-01T06:32:29;101122.25;;;11.54;99.37
64544;BME280;50936;51.660;5.616;2023-05-01T06:34:56;101105.81;;;11.58;99.73
64544;BME280;50936;51.660;5.616;2023-05-01T06:37:23;101111.63;;;11.64;99.41
64544;BME280;50936;51.660;5.616;2023-05-01T06:39:50;101107.88;;;11.67;99.36
64544;BME280;50936;51.660;5.616;2023-05-01T06:42:17;101116.41;;;11.73;99.63
64544;BME280;50936;51.660;5.616;2023-05-01T06:44:46;101110.69;;;11.78;99.78
64544;BME280;50936;51.660;5.616;2023-05-01T06:47:13;101114.03;;;11.82;99.97
64544;BME280;50936;51.660;5.616;2023-05-01T06:49:40;101108.88;;;11.91;100.00
64544;BME280;50936;51.660;5.616;2023-05-01T06:52:09;101108.00;;;12.04;99.30
64544;BME280;50936;51.660;5.616;2023-05-01T06:54:36;101119.88;;;12.14;98.89
64544;BME280;50936;51.660;5.616;2023-05-01T06:57:03;101109.69;;;12.30;99.57
64544;BME280;50936;51.660;5.616;2023-05-01T06:59:29;101114.53;;;12.51;98.57
64544;BME280;50936;51.660;5.616;2023-05-01T07:01:56;101111.75;;;12.77;96.69
64544;BME280;50936;51.660;5.616;2023-05-01T07:04:23;101113.81;;;12.97;95.66
64544;BME280;50936;51.660;5.616;2023-05-01T07:06:50;101125.13;;;13.15;94.45
64544;BME280;50936;51.660;5.616;2023-05-01T07:09:17;101116.03;;;13.27;92.06
64544;BME280;50936;51.660;5.616;2023-05-01T07:11:44;101112.31;;;13.41;92.73
64544;BME280;50936;51.660;5.616;2023-05-01T07:14:11;101108.91;;;13.62;90.50
64544;BME280;50936;51.660;5.616;2023-05-01T07:16:38;101111.41;;;13.76;90.71
64544;BME280;50936;51.660;5.616;2023-05-01T07:19:05;101112.16;;;13.90;90.31
64544;BME280;50936;51.660;5.616;2023-05-01T07:21:32;101118.34;;;14.03;89.03
64544;BME280;50936;51.660;5.616;2023-05-01T07:23:59;101112.94;;;14.14;89.40
64544;BME280;50936;51.660;5.616;2023-05-01T07:26:26;101112.53;;;14.19;86.40
64544;BME280;50936;51.660;5.616;2023-05-01T07:28:53;101108.47;;;14.24;87.26
64544;BME280;50936;51.660;5.616;2023-05-01T07:31:20;101116.59;;;14.36;85.28
64544;BME280;50936;51.660;5.616;2023-05-01T07:33:48;101110.41;;;14.45;84.42
64544;BME280;50936;51.660;5.616;2023-05-01T07:36:16;101113.38;;;14.53;84.07
64544;BME280;50936;51.660;5.616;2023-05-01T07:38:46;101120.91;;;14.72;81.53
64544;BME280;50936;51.660;5.616;2023-05-01T07:41:13;101113.09;;;14.90;80.39
64544;BME280;50936;51.660;5.616;2023-05-01T07:43:40;101117.50;;;15.02;79.94
64544;BME280;50936;51.660;5.616;2023-05-01T07:46:06;101115.53;;;15.05;80.12
64544;BME280;50936;51.660;5.616;2023-05-01T07:48:33;101109.06;;;15.17;81.35
64544;BME280;50936;51.660;5.616;2023-05-01T07:51:05;101110.69;;;15.40;80.69
64544;BME280;50936;51.660;5.616;2023-05-01T07:53:32;101099.91;;;15.60;79.26
64544;BME280;50936;51.660;5.616;2023-05-01T07:56:06;101106.88;;;15.95;79.62
64544;BME280;50936;51.660;5.616;2023-05-01T07:58:35;101113.16;;;16.16;76.60
64544;BME280;50936;51.660;5.616;2023-05-01T08:01:04;101112.09;;;16.29;74.28
64544;BME280;50936;51.660;5.616;2023-05-01T08:03:31;101108.16;;;16.52;75.00
64544;BME280;50936;51.660;5.616;2023-05-01T08:05:58;101110.19;;;16.60;72.31
64544;BME280;50936;51.660;5.616;2023-05-01T08:08:26;101113.06;;;16.68;72.90
64544;BME280;50936;51.660;5.616;2023-05-01T08:10:53;101120.59;;;16.96;71.64
64544;BME280;50936;51.660;5.616;2023-05-01T08:13:20;101114.59;;;17.02;69.04
64544;BME280;50936;51.660;5.616;2023-05-01T08:15:47;101119.75;;;17.05;68.76
64544;BME280;50936;51.660;5.616;2023-05-01T08:18:14;101114.03;;;17.08;69.75
64544;BME280;50936;51.660;5.616;2023-05-01T08:20:46;101115.75;;;17.28;69.16
64544;BME280;50936;51.660;5.616;2023-05-01T08:23:14;101118.88;;;17.73;67.08
64544;BME280;50936;51.660;5.616;2023-05-01T08:25:42;101119.09;;;18.08;66.20
64544;BME280;50936;51.660;5.616;2023-05-01T08:28:13;101113.09;;;18.70;66.50
64544;BME280;50936;51.660;5.616;2023-05-01T08:30:40;101116.59;;;19.44;65.59
64544;BME280;50936;51.660;5.616;2023-05-01T08:33:07;101109.88;;;20.09;62.14
64544;BME280;50936;51.660;5.616;2023-05-01T08:35:34;101104.00;;;20.64;62.16
64544;BME280;50936;51.660;5.616;2023-05-01T08:38:01;101118.19;;;21.19;57.44
64544;BME280;50936;51.660;5.616;2023-05-01T08:40:31;101104.69;;;21.66;55.45
64544;BME280;50936;51.660;5.616;2023-05-01T08:43:01;101116.84;;;21.97;51.85
64544;BME280;50936;51.660;5.616;2023-05-01T08:45:32;101107.06;;;21.78;51.30
64544;BME280;50936;51.660;5.616;2023-05-01T08:48:05;101112.75;;;21.68;53.04
64544;BME280;50936;51.660;5.616;2023-05-01T08:50:33;101111.69;;;21.44;51.20
64544;BME280;50936;51.660;5.616;2023-05-01T08:53:04;101109.13;;;21.18;50.78
64544;BME280;50936;51.660;5.616;2023-05-01T08:55:34;101106.88;;;21.05;51.38
64544;BME280;50936;51.660;5.616;2023-05-01T08:58:05;101114.78;;;21.17;51.40
64544;BME280;50936;51.660;5.616;2023-05-01T09:00:35;101119.06;;;21.19;52.18
64544;BME280;50936;51.660;5.616;2023-05-01T09:03:04;101117.38;;;21.34;51.24
64544;BME280;50936;51.660;5.616;2023-05-01T09:05:34;101108.97;;;21.36;52.02
64544;BME280;50936;51.660;5.616;2023-05-01T09:08:01;101105.34;;;21.44;51.18
64544;BME280;50936;51.660;5.616;2023-05-01T09:10:28;101105.88;;;21.31;51.39
64544;BME280;50936;51.660;5.616;2023-05-01T09:13:02;101111.69;;;21.28;51.08
64544;BME280;50936;51.660;5.616;2023-05-01T09:15:34;101112.38;;;21.30;51.62
64544;BME280;50936;51.660;5.616;2023-05-01T09:18:02;101108.97;;;21.36;51.72
64544;BME280;50936;51.660;5.616;2023-05-01T09:20:30;101106.91;;;21.46;51.44
64544;BME280;50936;51.660;5.616;2023-05-01T09:22:58;101108.81;;;21.62;51.74
64544;BME280;50936;51.660;5.616;2023-05-01T09:25:25;101106.91;;;21.87;49.89
64544;BME280;50936;51.660;5.616;2023-05-01T09:27:52;101105.84;;;21.97;49.12
64544;BME280;50936;51.660;5.616;2023-05-01T09:30:33;101104.19;;;21.71;49.36
64544;BME280;50936;51.660;5.616;2023-05-01T09:33:10;101101.78;;;21.51;49.71
64544;BME280;50936;51.660;5.616;2023-05-01T09:35:52;101105.84;;;21.39;50.85
64544;BME280;50936;51.660;5.616;2023-05-01T09:38:25;101111.34;;;21.39;50.68
64544;BME280;50936;51.660;5.616;2023-05-01T09:40:55;101111.34;;;21.31;50.81
64544;BME280;50936;51.660;5.616;2023-05-01T09:43:29;101101.75;;;21.43;51.69
64544;BME280;50936;51.660;5.616;2023-05-01T09:46:07;101107.06;;;21.78;51.35
64544;BME280;50936;51.660;5.616;2023-05-01T09:48:36;101102.00;;;22.14;51.09
64544;BME280;50936;51.660;5.616;2023-05-01T09:51:23;101104.34;;;22.42;48.56
64544;BME280;50936;51.660;5.616;2023-05-01T09:54:00;101105.00;;;22.52;48.67
64544;BME280;50936;51.660;5.616;2023-05-01T09:56:30;101103.94;;;22.61;48.92
64544;BME280;50936;51.660;5.616;2023-05-01T09:59:19;101107.28;;;22.80;47.52
64544;BME280;50936;51.660;5.616;2023-05-01T10:01:46;101099.91;;;23.12;47.92
64544;BME280;50936;51.660;5.616;2023-05-01T10:04:16;101104.13;;;23.45;47.20
64544;BME280;50936;51.660;5.616;2023-05-01T10:06:43;101101.06;;;23.78;45.75
64544;BME280;50936;51.660;5.616;2023-05-01T10:09:25;101100.09;;;23.94;43.09
64544;BME280;50936;51.660;5.616;2023-05-01T10:11:55;101089.13;;;24.01;44.49
64544;BME280;50936;51.660;5.616;2023-05-01T10:14:23;101098.84;;;24.27;43.71
64544;BME280;50936;51.660;5.616;2023-05-01T10:16:52;101099.81;;;24.64;44.46
64544;BME280;50936;51.660;5.616;2023-05-01T10:19:20;101095.44;;;24.91;42.81
64544;BME280;50936;51.660;5.616;2023-05-01T10:21:47;101101.31;;;25.03;41.54
64544;BME280;50936;51.660;5.616;2023-05-01T10:24:14;101100.66;;;25.01;42.17
64544;BME280;50936;51.660;5.616;2023-05-01T10:26:43;101102.53;;;25.15;42.05
64544;BME280;50936;51.660;5.616;2023-05-01T10:29:11;101103.06;;;25.25;41.45
64544;BME280;50936;51.660;5.616;2023-05-01T10:31:38;101098.22;;;25.12;41.41
64544;BME280;50936;51.660;5.616;2023-05-01T10:34:09;101104.66;;;24.76;41.62
64544;BME280;50936;51.660;5.616;2023-05-01T10:36:46;101105.31;;;24.34;41.50
64544;BME280;50936;51.660;5.616;2023-05-01T10:39:33;101106.91;;;23.83;42.94
64544;BME280;50936;51.660;5.616;2023-05-01T10:42:09;101100.59;;;23.52;43.20
64544;BME280;50936;51.660;5.616;2023-05-01T10:44:40;101107.75;;;23.23;43.00
64544;BME280;50936;51.660;5.616;2023-05-01T10:55:38;101105.16;;;22.03;47.83
64544;BME280;50936;51.660;5.616;2023-05-01T10:58:13;101092.09;;;21.88;49.11
64544;BME280;50936;51.660;5.616;2023-05-01T11:01:28;101087.28;;;21.99;48.90
64544;BME280;50936;51.660;5.616;2023-05-01T11:04:01;101101.72;;;22.01;49.18
64544;BME280;50936;51.660;5.616;2023-05-01T11:06:30;101094.16;;;22.03;49.39
64544;BME280;50936;51.660;5.616;2023-05-01T11:08:59;101092.75;;;22.07;49.20
64544;BME280;50936;51.660;5.616;2023-05-01T11:14:04;101090.66;;;22.17;49.82
64544;BME280;50936;51.660;5.616;2023-05-01T11:18:59;101082.19;;;21.71;50.73
64544;BME280;50936;51.660;5.616;2023-05-01T11:21:33;101085.75;;;21.88;50.46
64544;BME280;50936;51.660;5.616;2023-05-01T11:24:08;101093.72;;;22.39;49.71
64544;BME280;50936;51.660;5.616;2023-05-01T11:26:40;101090.31;;;22.28;47.92
64544;BME280;50936;51.660;5.616;2023-05-01T11:29:09;101094.25;;;22.34;48.49
64544;BME280;50936;51.660;5.616;2023-05-01T11:31:38;101101.50;;;22.66;47.95
64544;BME280;50936;51.660;5.616;2023-05-01T11:34:05;101105.78;;;23.00;47.09
64544;BME280;50936;51.660;5.616;2023-05-01T11:36:49;101105.31;;;23.28;46.41
64544;BME280;50936;51.660;5.616;2023-05-01T11:39:18;101105.78;;;23.32;44.29
64544;BME280;50936;51.660;5.616;2023-05-01T11:41:46;101095.00;;;23.22;46.10
64544;BME280;50936;51.660;5.616;2023-05-01T11:44:17;101093.16;;;23.37;45.49
64544;BME280;50936;51.660;5.616;2023-05-01T11:46:44;101108.34;;;23.33;45.08
64544;BME280;50936;51.660;5.616;2023-05-01T11:49:11;101115.22;;;23.37;46.34
64544;BME280;50936;51.660;5.616;2023-05-01T11:51:38;101105.00;;;23.61;44.12
64544;BME280;50936;51.660;5.616;2023-05-01T11:54:07;101108.00;;;23.74;44.85
64544;BME280;50936;51.660;5.616;2023-05-01T11:56:36;101110.47;;;23.69;42.79
64544;BME280;50936;51.660;5.616;2023-05-01T11:59:11;101106.13;;;23.52;45.05
64544;BME280;50936;51.660;5.616;2023-05-01T12:01:45;101111.16;;;23.48;43.68
64544;BME280;50936;51.660;5.616;2023-05-01T12:04:22;101110.25;;;23.01;45.04
64544;BME280;50936;51.660;5.616;2023-05-01T12:06:57;101116.34;;;22.57;45.23
64544;BME280;50936;51.660;5.616;2023-05-01T12:09:25;101104.09;;;22.12;46.21
64544;BME280;50936;51.660;5.616;2023-05-01T12:11:53;101123.22;;;21.81;47.17
64544;BME280;50936;51.660;5.616;2023-05-01T12:14:20;101112.41;;;21.87;49.12
64544;BME280;50936;51.660;5.616;2023-05-01T12:16:48;101118.66;;;22.37;47.41
64544;BME280;50936;51.660;5.616;2023-05-01T12:19:16;101109.94;;;22.65;46.41
64544;BME280;50936;51.660;5.616;2023-05-01T12:21:43;101119.44;;;22.62;46.68
64544;BME280;50936;51.660;5.616;2023-05-01T12:24:15;101116.53;;;22.87;46.75
64544;BME280;50936;51.660;5.616;2023-05-01T12:26:44;101124.94;;;23.25;45.97
64544;BME280;50936;51.660;5.616;2023-05-01T12:29:12;101121.31;;;23.48;45.13
64544;BME280;50936;51.660;5.616;2023-05-01T12:31:47;101121.78;;;23.74;45.20
64544;BME280;50936;51.660;5.616;2023-05-01T12:34:15;101122.22;;;24.01;44.45
64544;BME280;50936;51.660;5.616;2023-05-01T12:36:52;101124.94;;;24.39;41.46
64544;BME280;50936;51.660;5.616;2023-05-01T12:39:20;101128.06;;;24.51;40.63
64544;BME280;50936;51.660;5.616;2023-05-01T12:41:49;101126.00;;;24.38;40.01
64544;BME280;50936;51.660;5.616;2023-05-01T12:44:27;101121.88;;;24.34;39.34
64544;BME280;50936;51.660;5.616;2023-05-01T12:47:01;101116.53;;;24.17;38.54
64544;BME280;50936;51.660;5.616;2023-05-01T12:49:30;101115.84;;;23.86;39.81
64544;BME280;50936;51.660;5.616;2023-05-01T12:51:59;101115.66;;;23.64;39.44
64544;BME280;50936;51.660;5.616;2023-05-01T12:54:31;101117.91;;;23.45;40.35
64544;BME280;50936;51.660;5.616;2023-05-01T12:57:11;101112.56;;;23.67;39.02
64544;BME280;50936;51.660;5.616;2023-05-01T12:59:44;101112.06;;;23.63;40.05
64544;BME280;50936;51.660;5.616;2023-05-01T13:02:14;101119.63;;;23.85;40.40
64544;BME280;50936;51.660;5.616;2023-05-01T13:04:43;101115.03;;;23.77;38.71
64544;BME280;50936;51.660;5.616;2023-05-01T13:07:18;101109.44;;;23.24;39.98
64544;BME280;50936;51.660;5.616;2023-05-01T13:09:56;101117.72;;;23.24;41.25
64544;BME280;50936;51.660;5.616;2023-05-01T13:12:25;101120.97;;;23.51;40.86
64544;BME280;50936;51.660;5.616;2023-05-01T13:14:54;101126.13;;;23.92;40.35
64544;BME280;50936;51.660;5.616;2023-05-01T13:17:29;101123.88;;;24.40;39.44
64544;BME280;50936;51.660;5.616;2023-05-01T13:19:59;101127.22;;;24.20;40.27
64544;BME280;50936;51.660;5.616;2023-05-01T13:25:04;101123.88;;;23.26;41.71
64544;BME280;50936;51.660;5.616;2023-05-01T13:27:41;101128.81;;;22.76;43.76
64544;BME280;50936;51.660;5.616;2023-05-01T13:30:15;101131.25;;;22.32;44.60
64544;BME280;50936;51.660;5.616;2023-05-01T13:32:47;101136.44;;;21.94;45.75
64544;BME280;50936;51.660;5.616;2023-05-01T13:35:22;101133.06;;;21.50;48.88
64544;BME280;50936;51.660;5.616;2023-05-01T13:37:51;101136.75;;;21.17;49.53
64544;BME280;50936;51.660;5.616;2023-05-01T13:40:19;101131.31;;;20.74;51.05
64544;BME280;50936;51.660;5.616;2023-05-01T13:42:50;101142.44;;;20.38;52.32
64544;BME280;50936;51.660;5.616;2023-05-01T13:45:18;101128.25;;;20.16;53.80